createdAt,value
2022-11-25T01:01:28.949Z,17.67
2022-11-25T01:03:56.858Z,18.35
2022-11-25T01:06:26.015Z,18.30
2022-11-25T01:09:02.779Z,18.63
2022-11-25T01:11:31.554Z,17.30
2022-11-25T01:14:01.801Z,19.00
2022-11-25T01:16:32.943Z,19.33
2022-11-25T01:19:11.832Z,18.52
2022-11-25T01:21:51.790Z,19.33
2022-11-25T01:24:20.731Z,17.08
2022-11-25T01:26:49.085Z,19.35
2022-11-25T01:29:18.626Z,20.10
2022-11-25T01:31:49.705Z,18.27
2022-11-25T01:34:27.589Z,16.67
2022-11-25T01:36:58.953Z,18.35
2022-11-25T01:39:38.939Z,18.92
2022-11-25T01:42:09.849Z,19.10
2022-11-25T01:44:41.727Z,20.08
2022-11-25T01:47:16.236Z,15.60
2022-11-25T01:49:51.416Z,20.05
2022-11-25T01:52:30.338Z,19.88
2022-11-25T01:55:15.910Z,20.48
2022-11-25T01:57:49.372Z,17.35
2022-11-25T02:00:17.570Z,18.05
2022-11-25T02:02:50.652Z,19.05
2022-11-25T02:05:33.773Z,17.80
2022-11-25T02:08:27.107Z,18.25
2022-11-25T02:11:01.684Z,18.17
2022-11-25T02:13:33.082Z,18.45
2022-11-25T02:16:05.591Z,18.02
2022-11-25T02:18:33.506Z,17.13
2022-11-25T02:21:02.688Z,17.20
2022-11-25T02:23:41.080Z,17.83
2022-11-25T02:26:14.970Z,15.80
2022-11-25T02:28:45.095Z,16.67
2022-11-25T02:31:22.632Z,16.90
2022-11-25T02:33:56.946Z,16.88
2022-11-25T02:36:25.077Z,16.90
2022-11-25T02:39:04.942Z,16.70
2022-11-25T02:41:43.305Z,17.63
2022-11-25T02:44:11.829Z,16.75
2022-11-25T02:46:40.553Z,18.90
2022-11-25T02:49:11.873Z,16.73
2022-11-25T02:51:45.337Z,15.93
2022-11-25T02:54:17.313Z,17.05
2022-11-25T02:56:45.204Z,17.85
2022-11-25T02:59:13.644Z,16.98
2022-11-25T03:01:42.139Z,16.67
2022-11-25T03:04:17.948Z,16.40
2022-11-25T03:06:49.966Z,17.70
2022-11-25T03:09:28.822Z,15.90
2022-11-25T03:12:18.212Z,16.67
2022-11-25T03:14:47.752Z,17.92
2022-11-25T03:17:15.773Z,16.02
2022-11-25T03:19:44.072Z,17.17
2022-11-25T03:22:14.223Z,18.27
2022-11-25T03:24:45.755Z,15.07
2022-11-25T03:27:14.441Z,16.50
2022-11-25T03:29:50.336Z,17.40
2022-11-25T03:32:18.924Z,17.45
2022-11-25T03:34:51.170Z,17.60
2022-11-25T03:37:19.917Z,18.10
2022-11-25T03:39:49.210Z,16.45
2022-11-25T03:42:22.449Z,16.02
2022-11-25T03:44:50.995Z,16.58
2022-11-25T03:47:19.944Z,15.80
2022-11-25T03:49:49.228Z,16.05
2022-11-25T03:52:23.062Z,16.10
2022-11-25T03:54:55.794Z,15.30
2022-11-25T03:57:38.556Z,15.73
2022-11-25T04:00:15.817Z,16.83
2022-11-25T04:03:00.007Z,14.15
2022-11-25T04:05:28.674Z,15.80
2022-11-25T04:08:00.405Z,16.50
2022-11-25T04:10:31.790Z,14.93
2022-11-25T04:13:00.976Z,15.60
2022-11-25T04:15:47.671Z,15.88
2022-11-25T04:18:21.484Z,15.10
2022-11-25T04:20:55.238Z,16.02
2022-11-25T04:23:25.672Z,14.07
2022-11-25T04:26:05.443Z,15.32
2022-11-25T04:28:41.661Z,14.52
2022-11-25T04:31:32.151Z,15.77
2022-11-25T04:34:03.411Z,14.75
2022-11-25T04:36:42.217Z,15.02
2022-11-25T04:39:10.721Z,15.00
2022-11-25T04:41:39.714Z,12.63
2022-11-25T04:44:10.654Z,15.52
2022-11-25T04:46:40.916Z,13.52
2022-11-25T04:49:10.476Z,13.73
2022-11-25T04:51:40.313Z,11.30
2022-11-25T04:54:08.279Z,13.18
2022-11-25T04:56:38.320Z,13.50
2022-11-25T04:59:27.311Z,14.25
2022-11-25T05:01:55.291Z,12.93
2022-11-25T05:04:52.170Z,15.13
2022-11-25T05:07:21.946Z,13.90
2022-11-25T05:09:52.651Z,14.25
2022-11-25T05:12:38.420Z,14.35
2022-11-25T05:15:14.575Z,15.35
2022-11-25T05:20:46.056Z,13.63
2022-11-25T05:23:22.239Z,14.77
2022-11-25T05:26:24.270Z,14.52
2022-11-25T05:29:18.467Z,13.90
2022-11-25T05:31:49.904Z,14.63
2022-11-25T05:34:24.555Z,14.95
2022-11-25T05:37:01.733Z,14.35
2022-11-25T10:00:33.481Z,15.93
2022-11-25T10:03:03.378Z,17.63
2022-11-25T10:06:10.645Z,18.10
2022-11-25T10:08:43.444Z,18.13
2022-11-25T10:11:40.504Z,17.92
2022-11-25T10:14:38.643Z,17.70
2022-11-25T10:18:03.373Z,18.83
2022-11-25T10:20:42.541Z,17.83
2022-11-25T10:24:12.092Z,16.08
2022-11-25T10:30:11.389Z,17.48
2022-11-25T10:33:02.292Z,17.77
2022-11-25T10:35:45.280Z,17.42
2022-11-25T10:38:24.422Z,18.83
2022-11-25T10:41:29.345Z,19.52
2022-11-25T10:51:12.846Z,19.40
2022-11-25T10:53:43.495Z,20.15
2022-11-25T10:56:21.019Z,20.27
2022-11-25T10:58:51.818Z,19.80
2022-11-25T11:01:26.887Z,21.70
2022-11-25T11:04:07.048Z,19.58
2022-11-25T11:06:40.335Z,20.90
2022-11-25T11:09:35.605Z,21.02
2022-11-25T11:12:16.592Z,23.17
2022-11-25T11:14:44.468Z,24.35
2022-11-25T11:17:37.108Z,23.38
2022-11-25T11:20:08.551Z,23.95
2022-11-25T11:22:37.250Z,25.90
2022-11-25T11:25:28.927Z,22.88
2022-11-25T11:27:57.097Z,23.63
2022-11-25T11:30:30.266Z,20.77
2022-11-25T11:33:06.545Z,23.63
2022-11-25T11:35:55.668Z,22.50
2022-11-25T11:38:25.054Z,22.60
2022-11-25T11:41:18.621Z,21.88
2022-11-25T11:44:16.078Z,20.05
2022-11-25T11:51:23.813Z,20.80
2022-11-25T11:53:58.092Z,23.33
2022-11-25T11:56:44.575Z,20.88
2022-11-25T11:59:22.040Z,21.73
2022-11-25T12:02:06.132Z,22.38
2022-11-25T12:04:52.730Z,23.08
2022-11-25T12:07:50.931Z,22.80
2022-11-25T12:10:41.361Z,21.15
2022-11-25T12:13:19.711Z,22.15
2022-11-25T12:16:03.224Z,22.98
2022-11-25T12:19:02.854Z,23.17
2022-11-25T12:22:00.780Z,22.10
2022-11-25T12:24:58.507Z,22.45
2022-11-25T12:27:41.065Z,22.08
2022-11-25T12:30:20.868Z,22.67
2022-11-25T12:33:00.631Z,22.13
2022-11-25T12:35:32.004Z,19.85
2022-11-25T12:38:11.690Z,22.17
2022-11-25T12:41:03.774Z,18.67
2022-11-25T12:43:46.670Z,17.33
2022-11-25T12:46:35.752Z,19.05
2022-11-25T12:49:04.481Z,19.30
2022-11-25T12:51:35.588Z,18.63
2022-11-25T12:54:22.257Z,20.15
2022-11-25T12:57:44.418Z,19.52
2022-11-25T13:00:41.176Z,18.15
2022-11-25T13:03:46.940Z,20.42
2022-11-25T13:06:23.546Z,19.33
2022-11-25T13:08:59.127Z,21.10
2022-11-25T13:11:41.614Z,19.65
2022-11-25T13:14:37.024Z,21.30
2022-11-25T13:17:18.451Z,21.30
2022-11-25T13:19:49.646Z,20.65
2022-11-25T13:22:18.923Z,22.38
2022-11-25T13:24:47.097Z,22.90
2022-11-25T13:27:54.093Z,22.13
2022-11-25T13:30:34.705Z,22.48
2022-11-25T13:35:43.679Z,24.45
2022-11-25T13:38:37.477Z,23.80
2022-11-25T13:41:57.018Z,24.38
2022-11-25T13:45:12.134Z,25.40
2022-11-25T13:48:55.245Z,24.88
2022-11-25T13:51:47.300Z,25.77
2022-11-25T13:54:42.861Z,26.45
2022-11-25T13:57:42.547Z,27.58
2022-11-25T14:00:15.811Z,26.27
2022-11-25T14:02:50.033Z,25.95
2022-11-25T14:05:35.798Z,26.50
2022-11-25T14:08:24.898Z,29.10
2022-11-25T14:10:55.758Z,28.60
2022-11-25T14:13:50.127Z,26.25
2022-11-25T14:19:59.168Z,28.33
2022-11-25T14:23:03.377Z,26.60
2022-11-25T14:25:43.252Z,23.50
2022-11-25T14:28:27.018Z,22.30
2022-11-25T14:31:01.026Z,21.48
2022-11-25T14:33:33.415Z,19.52
2022-11-25T14:36:35.266Z,18.25
2022-11-25T14:39:14.151Z,17.92
2022-11-25T14:41:44.540Z,15.80
2022-11-25T14:44:18.703Z,16.58
2022-11-25T14:46:52.488Z,16.50
2022-11-25T14:49:46.606Z,16.52
2022-11-25T14:55:30.778Z,16.25
2022-11-25T14:57:59.043Z,15.77
2022-11-25T15:00:27.731Z,15.90
2022-11-25T15:03:00.836Z,17.73
2022-11-25T15:05:37.140Z,18.00
2022-11-25T15:08:13.729Z,16.40
2022-11-25T15:10:51.419Z,13.55
2022-11-25T15:13:22.151Z,14.68
2022-11-25T15:15:51.813Z,16.80
2022-11-25T15:18:21.652Z,14.30
2022-11-25T15:20:51.379Z,16.33
2022-11-25T15:23:32.443Z,15.50
2022-11-25T15:26:05.043Z,15.38
2022-11-25T15:28:52.117Z,13.07
2022-11-25T15:31:21.583Z,13.20
2022-11-25T15:33:54.512Z,13.35
2022-11-25T15:36:24.265Z,13.75
2022-11-25T15:38:52.678Z,13.30
2022-11-25T15:41:36.306Z,13.90
2022-11-25T15:44:15.669Z,16.88
2022-11-25T15:46:50.716Z,17.80
2022-11-25T15:49:18.625Z,16.70
2022-11-25T15:51:54.401Z,19.55
2022-11-25T15:54:29.246Z,13.77
2022-11-25T15:57:02.668Z,15.55
2022-11-25T15:59:42.953Z,14.93
2022-11-25T16:02:46.120Z,14.02
2022-11-25T16:05:14.728Z,15.10
2022-11-25T16:07:51.849Z,17.58
2022-11-25T16:10:33.805Z,20.40
2022-11-25T16:13:24.338Z,25.13
2022-11-25T16:15:53.372Z,22.67
2022-11-25T16:18:39.799Z,19.27
2022-11-25T16:21:12.799Z,22.45
2022-11-25T16:23:48.481Z,23.05
2022-11-25T16:26:24.612Z,20.30
2022-11-25T16:28:57.180Z,18.70
2022-11-25T16:31:25.466Z,16.45
2022-11-25T16:34:14.543Z,17.48
2022-11-25T16:36:43.546Z,16.15
2022-11-25T16:39:11.534Z,15.98
2022-11-25T16:41:41.119Z,15.45
2022-11-25T16:44:27.615Z,15.40
2022-11-25T16:46:55.788Z,16.98
2022-11-25T16:49:23.876Z,22.60
2022-11-25T16:51:51.976Z,32.03
2022-11-25T16:54:25.711Z,30.20
2022-11-25T16:56:54.121Z,21.65
2022-11-25T16:59:28.384Z,19.38
2022-11-25T17:01:56.362Z,19.45
2022-11-25T17:04:25.632Z,19.30
2022-11-25T17:07:30.443Z,19.40
2022-11-25T17:09:44.412Z,38.15
2022-11-25T17:12:18.462Z,19.45
2022-11-25T17:14:47.685Z,23.75
2022-11-25T17:17:24.406Z,22.10
2022-11-25T17:19:53.373Z,19.73
2022-11-25T17:22:24.329Z,19.40
2022-11-25T17:24:52.367Z,21.67
2022-11-25T17:27:31.033Z,17.13
2022-11-25T17:30:00.087Z,18.98
2022-11-25T17:32:28.437Z,18.60
2022-11-25T17:37:38.769Z,15.70
2022-11-25T17:40:07.563Z,17.92
2022-11-25T17:42:36.024Z,18.05
2022-11-25T17:45:04.484Z,18.30
2022-11-25T17:47:32.710Z,18.00
2022-11-25T17:50:02.035Z,17.83
2022-11-25T17:52:30.923Z,14.98
2022-11-25T17:54:58.819Z,16.70
2022-11-25T17:57:38.703Z,12.48
2022-11-25T18:00:13.019Z,17.77
2022-11-25T18:02:41.381Z,15.27
2022-11-25T18:05:17.620Z,17.40
2022-11-25T18:07:46.231Z,17.38
2022-11-25T18:10:18.821Z,18.00
2022-11-25T18:12:47.560Z,18.83
2022-11-25T18:15:27.771Z,15.45
2022-11-25T18:18:21.088Z,18.58
2022-11-25T18:20:50.283Z,15.07
2022-11-25T18:23:20.001Z,16.83
2022-11-25T18:25:50.931Z,16.25
2022-11-25T18:28:22.291Z,16.63
2022-11-25T18:30:50.244Z,16.37
2022-11-25T18:33:18.948Z,14.90
2022-11-25T18:35:47.310Z,16.58
2022-11-25T18:38:17.918Z,15.88
2022-11-25T18:40:51.874Z,17.65
2022-11-25T18:43:25.694Z,15.55
2022-11-25T18:45:54.296Z,15.30
2022-11-25T18:48:23.924Z,16.85
2022-11-25T18:50:53.142Z,17.17
2022-11-25T18:53:21.210Z,15.63
2022-11-25T18:55:49.258Z,17.80
2022-11-25T18:58:20.529Z,17.80
2022-11-25T19:00:51.252Z,17.20
2022-11-25T19:03:21.431Z,17.85
2022-11-25T19:05:50.271Z,18.05
2022-11-25T19:08:18.875Z,17.63
2022-11-25T19:10:47.660Z,19.27
2022-11-25T19:13:21.033Z,20.15
2022-11-25T19:15:49.543Z,18.40
2022-11-25T19:18:24.299Z,18.17
2022-11-25T19:20:52.678Z,20.02
2022-11-25T19:23:25.772Z,19.83
2022-11-25T19:26:00.107Z,20.17
2022-11-25T19:28:28.931Z,20.08
2022-11-25T19:30:59.576Z,19.65
2022-11-25T19:33:35.014Z,21.65
2022-11-25T19:36:03.116Z,21.38
2022-11-25T19:38:33.067Z,21.58
2022-11-25T19:41:01.657Z,22.73
2022-11-25T19:43:29.624Z,20.45
2022-11-25T19:45:57.855Z,22.17
2022-11-25T19:51:02.443Z,24.33
2022-11-25T19:53:33.911Z,23.55
2022-11-25T19:56:04.942Z,23.02
2022-11-25T19:58:34.888Z,25.70
2022-11-25T20:01:04.058Z,25.58
2022-11-25T20:03:32.083Z,25.55
2022-11-25T20:06:00.097Z,27.85
2022-11-25T20:08:29.158Z,23.85
2022-11-25T20:10:57.849Z,24.65
2022-11-25T20:13:26.429Z,23.38
2022-11-25T20:15:56.070Z,28.45
2022-11-25T20:18:29.895Z,25.33
2022-11-25T20:21:08.589Z,28.50
2022-11-25T20:23:43.369Z,27.20
2022-11-25T20:26:27.512Z,29.17
2022-11-25T20:28:56.194Z,26.73
2022-11-25T20:31:30.698Z,25.58
2022-11-25T20:33:58.977Z,23.95
2022-11-25T20:36:31.171Z,26.23
2022-11-25T20:39:00.038Z,26.02
2022-11-25T20:41:28.293Z,25.67
2022-11-25T20:43:56.659Z,28.65
2022-11-25T20:46:27.229Z,27.15
2022-11-25T20:48:56.914Z,27.37
2022-11-25T20:51:24.931Z,26.23
2022-11-25T20:53:55.699Z,29.55
2022-11-25T20:56:24.936Z,28.13
2022-11-25T20:58:53.137Z,28.65
2022-11-25T21:01:21.122Z,29.83
2022-11-25T21:03:49.652Z,26.08
2022-11-25T21:06:20.505Z,29.05
2022-11-25T21:08:50.070Z,29.15
2022-11-25T21:11:21.823Z,28.80
2022-11-25T21:13:49.997Z,26.00
2022-11-25T21:16:18.236Z,28.50
2022-11-25T21:18:46.580Z,26.83
2022-11-25T21:21:29.347Z,26.90
2022-11-25T21:24:15.583Z,25.13
2022-11-25T21:26:43.445Z,26.63
2022-11-25T21:29:24.629Z,30.50
2022-11-25T21:31:53.234Z,29.00
2022-11-25T21:34:21.691Z,29.35
2022-11-25T21:36:52.006Z,31.10
2022-11-25T21:41:59.328Z,30.52
2022-11-25T21:44:32.438Z,29.98
2022-11-25T21:47:00.687Z,28.45
2022-11-25T21:49:29.151Z,27.95
2022-11-25T21:51:57.669Z,26.40
2022-11-25T21:54:25.625Z,25.88
2022-11-25T21:56:58.125Z,24.88
2022-11-25T21:59:25.958Z,27.70
2022-11-25T22:01:55.546Z,27.60
2022-11-25T22:04:23.910Z,32.05
2022-11-25T22:06:52.133Z,28.92
2022-11-25T22:09:20.172Z,31.02
2022-11-25T22:11:48.727Z,28.80
2022-11-25T22:14:28.949Z,28.45
2022-11-25T22:16:56.991Z,29.35
2022-11-25T22:19:25.668Z,27.15
2022-11-25T22:21:53.786Z,29.05
2022-11-25T22:24:25.200Z,28.85
2022-11-25T22:26:57.736Z,27.35
2022-11-25T22:29:31.815Z,28.42
2022-11-25T22:31:59.793Z,31.58
2022-11-25T22:34:27.698Z,31.23
2022-11-25T22:36:55.551Z,29.50
2022-11-25T22:39:24.584Z,30.70
2022-11-25T22:42:01.142Z,25.90
2022-11-25T22:44:43.048Z,26.40
2022-11-25T22:47:35.422Z,28.52
2022-11-25T22:50:05.964Z,29.65
2022-11-25T22:52:35.590Z,23.67
2022-11-25T22:55:16.945Z,27.90
2022-11-25T22:57:45.013Z,24.45
2022-11-25T23:00:20.251Z,26.20
2022-11-25T23:02:48.514Z,25.48
2022-11-25T23:05:31.843Z,26.75
2022-11-25T23:08:02.415Z,27.60
2022-11-25T23:10:31.377Z,26.52
2022-11-25T23:12:59.230Z,26.13
2022-11-25T23:15:27.281Z,25.30
2022-11-25T23:18:00.056Z,24.95
2022-11-25T23:20:33.035Z,25.10
2022-11-25T23:23:18.216Z,23.75
2022-11-25T23:25:46.361Z,22.65
2022-11-25T23:28:14.918Z,22.00
2022-11-25T23:30:47.735Z,23.98
2022-11-25T23:33:25.920Z,24.02
2022-11-25T23:35:53.870Z,21.30
2022-11-25T23:38:22.975Z,21.35
2022-11-25T23:40:50.901Z,19.55
2022-11-25T23:43:18.908Z,20.75
2022-11-25T23:45:52.540Z,20.02
2022-11-25T23:48:23.035Z,22.15
2022-11-25T23:50:51.069Z,19.23
2022-11-25T23:53:26.149Z,20.33
2022-11-25T23:55:54.128Z,17.58
2022-11-25T23:58:29.623Z,21.45
